LSZB/BRN METAR and TAF weather

Enter ICAO airport designator
Station Type Date Time Source
LSZB METAR 2021/02/25 01:20 UTC NOAA

LSZB 250120Z AUTO 11002KT CAVOK M00/M00 Q1032


Station Type Date Time Source
LSZB Decoded METAR 2021/02/25 01:20 UTC NOAA

Bern / Belp , Switzerland (LSZB) 46-55N 007-30E
Feb 24, 2021 - 08:20 PM EST / 2021.02.25 0120 UTC
Wind: from the ESE (110 degrees) at 2 MPH (2 KT):0
Visibility: greater than 7 mile(s):0
Temperature: 32 F (0 C)
Dew Point: 32 F (0 C)
Relative Humidity: 100%
Pressure (altimeter): 30.47 in. Hg (1032 hPa)
ob: LSZB 250120Z AUTO 11002KT CAVOK M00/M00 Q1032
cycle: 1

Station Type Date Time Source
LSZB TAF 2014/12/22 20:03 UTC NOAA

TAF
AMD TAF
AMD LSZB 222054Z 2220/2224 CNL

Example: see airport list